This is the latest recevied weather packets stored in our database for station/object PA5MB-15. If no packets are shown the sender has not sent any weather packets the latest 10 day(s).
| Time | Temp. | Humidity | Pressure | Rain* | Wind** | Luminosity | Snow |
|---|---|---|---|---|---|---|---|
| 1777736132 | 22.78° C | 58% | 1016.3 hPa | 0 mm | - | 23 W/m² | - |
| 1777735844 | 23.33° C | 57% | 1016.3 hPa | 0 mm | - | 18 W/m² | - |
| 1777735521 | 23.33° C | 56% | 1016.3 hPa | 0 mm | - | 20 W/m² | - |
| 1777735232 | 23.33° C | 56% | 1016.4 hPa | 0 mm | - | 25 W/m² | - |
| 1777734931 | 22.78° C | 57% | 1016.5 hPa | 0 mm | - | 30 W/m² | - |
| 1777734631 | 23.33° C | 57% | 1016.5 hPa | 0 mm | - | 25 W/m² | - |
| 1777734327 | 23.33° C | 57% | 1016.7 hPa | 0 mm | - | 32 W/m² | - |
| 1777734034 | 23.89° C | 55% | 1016.7 hPa | 0 mm | - | 38 W/m² | - |
| 1777733731 | 23.89° C | 56% | 1016.8 hPa | 0 mm | - | 46 W/m² | - |
| 1777733431 | 23.33° C | 56% | 1016.9 hPa | 0 mm | - | 46 W/m² | - |
| 1777733132 | 23.33° C | 57% | 1016.9 hPa | 0 mm | - | 27 W/m² | - |
| 1777732832 | 22.78° C | 58% | 1017 hPa | 0 mm | - | 23 W/m² | - |
| 1777732531 | 22.78° C | 58% | 1017.1 hPa | 0 mm | - | 19 W/m² | - |
| 1777732231 | 23.33° C | 57% | 1017.1 hPa | 0 mm | - | 20 W/m² | - |
| 1777731932 | 23.89° C | 54% | 1017.2 hPa | 0 mm | - | 19 W/m² | - |
| 1777731631 | 23.89° C | 52% | 1017.3 hPa | 0 mm | - | 42 W/m² | - |
| 1777731331 | 23.33° C | 55% | 1017.3 hPa | 0 mm | - | 40 W/m² | - |
| 1777731032 | 22.78° C | 56% | 1017.4 hPa | 0 mm | - | 22 W/m² | - |
| 1777730733 | 23.33° C | 56% | 1017.4 hPa | 0 mm | - | 23 W/m² | - |
| 1777730446 | 23.89° C | 55% | 1017.5 hPa | 0 mm | - | 24 W/m² | - |
| 1777730132 | 24.44° C | 53% | 1017.5 hPa | 0 mm | - | 28 W/m² | - |
| 1777729822 | 25° C | 50% | 1017.6 hPa | 0 mm | - | 52 W/m² | - |
| 1777729532 | 25° C | 50% | 1017.6 hPa | 0 mm | - | 43 W/m² | - |
| 1777729232 | 25° C | 50% | 1017.7 hPa | 0 mm | - | 63 W/m² | - |
| 1777728932 | 23.89° C | 49% | 1017.8 hPa | 0 mm | - | 64 W/m² | - |
* Rain latest hour (hover to see other rain measurements)
** Current wind speed in m/s (hover to see current wind gust speed)